Terminal Aerodrome Forecast
Issued by NWS

Home | Current Version | Previous Version | Text Only | Print | Product List | Glossary On
Versions: 1 2 3 4 5 6 7 8 9 10 11 12 13 14
000
FTUS43 KIWX 061125
TAFSBN
TAF
KSBN 061125Z 0612/0712 18006KT P6SM SKC
     FM061500 20012KT P6SM SCT035
     FM070800 21009KT P6SM BKN035
      TEMPO 0709/0712 5SM -SHRA BR BKN030=

USA.gov is the U.S. government's official web portal to all federal, state and local government web resources and services.